sensor_id;sensor_type;location;lat;lon;timestamp;temperature;humidity
57843;DHT22;43673;51.058;3.734;2023-05-20T00:01:38;14.30;99.90
57843;DHT22;43673;51.058;3.734;2023-05-20T00:04:04;14.30;99.90
57843;DHT22;43673;51.058;3.734;2023-05-20T00:06:29;14.30;99.90
57843;DHT22;43673;51.058;3.734;2023-05-20T00:08:56;14.30;99.90
57843;DHT22;43673;51.058;3.734;2023-05-20T00:11:24;14.30;99.90
57843;DHT22;43673;51.058;3.734;2023-05-20T00:13:50;14.20;99.90
57843;DHT22;43673;51.058;3.734;2023-05-20T00:16:16;14.20;99.90
57843;DHT22;43673;51.058;3.734;2023-05-20T00:18:41;14.20;99.90
57843;DHT22;43673;51.058;3.734;2023-05-20T00:21:07;14.20;99.90
57843;DHT22;43673;51.058;3.734;2023-05-20T00:23:33;14.10;99.90
57843;DHT22;43673;51.058;3.734;2023-05-20T00:25:59;14.10;99.90
57843;DHT22;43673;51.058;3.734;2023-05-20T00:28:27;14.10;99.90
57843;DHT22;43673;51.058;3.734;2023-05-20T00:30:53;14.10;99.90
57843;DHT22;43673;51.058;3.734;2023-05-20T00:33:19;14.00;99.90
57843;DHT22;43673;51.058;3.734;2023-05-20T00:35:45;14.00;99.90
57843;DHT22;43673;51.058;3.734;2023-05-20T00:38:10;14.00;99.90
57843;DHT22;43673;51.058;3.734;2023-05-20T00:40:36;14.00;99.90
57843;DHT22;43673;51.058;3.734;2023-05-20T00:43:02;14.00;99.90
57843;DHT22;43673;51.058;3.734;2023-05-20T00:45:29;13.90;99.90
57843;DHT22;43673;51.058;3.734;2023-05-20T00:47:55;13.90;99.90
57843;DHT22;43673;51.058;3.734;2023-05-20T00:50:24;13.90;99.90
57843;DHT22;43673;51.058;3.734;2023-05-20T00:52:49;13.90;99.90
57843;DHT22;43673;51.058;3.734;2023-05-20T00:55:16;13.90;99.90
57843;DHT22;43673;51.058;3.734;2023-05-20T00:57:41;13.90;99.90
57843;DHT22;43673;51.058;3.734;2023-05-20T01:00:08;13.80;99.90
57843;DHT22;43673;51.058;3.734;2023-05-20T01:02:35;13.80;99.90
57843;DHT22;43673;51.058;3.734;2023-05-20T01:05:00;13.80;99.90
57843;DHT22;43673;51.058;3.734;2023-05-20T01:07:26;13.80;99.90
57843;DHT22;43673;51.058;3.734;2023-05-20T01:09:52;13.70;99.90
57843;DHT22;43673;51.058;3.734;2023-05-20T01:14:50;13.70;99.90
57843;DHT22;43673;51.058;3.734;2023-05-20T01:17:22;13.80;99.90
57843;DHT22;43673;51.058;3.734;2023-05-20T01:19:53;13.70;99.90
57843;DHT22;43673;51.058;3.734;2023-05-20T01:22:24;13.70;99.90
57843;DHT22;43673;51.058;3.734;2023-05-20T01:24:50;13.70;99.90
57843;DHT22;43673;51.058;3.734;2023-05-20T01:27:19;13.60;99.90
57843;DHT22;43673;51.058;3.734;2023-05-20T01:29:45;13.60;99.90
57843;DHT22;43673;51.058;3.734;2023-05-20T01:32:30;13.60;99.90
57843;DHT22;43673;51.058;3.734;2023-05-20T01:34:58;13.60;99.90
57843;DHT22;43673;51.058;3.734;2023-05-20T01:37:26;13.60;99.90
57843;DHT22;43673;51.058;3.734;2023-05-20T01:39:53;13.60;99.90
57843;DHT22;43673;51.058;3.734;2023-05-20T01:42:21;13.70;99.90
57843;DHT22;43673;51.058;3.734;2023-05-20T01:44:47;13.50;99.90
57843;DHT22;43673;51.058;3.734;2023-05-20T01:47:13;13.50;99.90
57843;DHT22;43673;51.058;3.734;2023-05-20T01:49:39;13.50;99.90
57843;DHT22;43673;51.058;3.734;2023-05-20T01:52:04;13.50;99.90
57843;DHT22;43673;51.058;3.734;2023-05-20T01:54:30;13.50;99.90
57843;DHT22;43673;51.058;3.734;2023-05-20T01:56:56;13.50;99.90
57843;DHT22;43673;51.058;3.734;2023-05-20T01:59:22;13.50;99.90
57843;DHT22;43673;51.058;3.734;2023-05-20T02:01:47;13.50;99.90
57843;DHT22;43673;51.058;3.734;2023-05-20T02:04:13;13.50;99.90
57843;DHT22;43673;51.058;3.734;2023-05-20T02:06:39;13.40;99.90
57843;DHT22;43673;51.058;3.734;2023-05-20T02:09:05;13.60;99.90
57843;DHT22;43673;51.058;3.734;2023-05-20T02:11:31;13.40;99.90
57843;DHT22;43673;51.058;3.734;2023-05-20T02:13:57;13.40;99.90
57843;DHT22;43673;51.058;3.734;2023-05-20T02:16:23;13.30;99.90
57843;DHT22;43673;51.058;3.734;2023-05-20T02:18:48;13.30;99.90
57843;DHT22;43673;51.058;3.734;2023-05-20T02:21:17;13.30;99.90
57843;DHT22;43673;51.058;3.734;2023-05-20T02:23:43;13.30;99.90
57843;DHT22;43673;51.058;3.734;2023-05-20T02:26:08;13.30;99.90
57843;DHT22;43673;51.058;3.734;2023-05-20T02:28:34;13.30;99.90
57843;DHT22;43673;51.058;3.734;2023-05-20T02:30:59;13.30;99.90
57843;DHT22;43673;51.058;3.734;2023-05-20T02:33:25;13.30;99.90
57843;DHT22;43673;51.058;3.734;2023-05-20T02:35:53;13.30;99.90
57843;DHT22;43673;51.058;3.734;2023-05-20T02:38:19;13.20;99.90
57843;DHT22;43673;51.058;3.734;2023-05-20T02:40:44;13.20;99.90
57843;DHT22;43673;51.058;3.734;2023-05-20T02:43:10;13.20;99.90
57843;DHT22;43673;51.058;3.734;2023-05-20T02:45:36;13.20;99.90
57843;DHT22;43673;51.058;3.734;2023-05-20T02:48:01;13.20;99.90
57843;DHT22;43673;51.058;3.734;2023-05-20T02:50:27;13.10;99.90
57843;DHT22;43673;51.058;3.734;2023-05-20T02:52:53;13.10;99.90
57843;DHT22;43673;51.058;3.734;2023-05-20T02:55:18;13.10;99.90
57843;DHT22;43673;51.058;3.734;2023-05-20T02:57:44;13.10;99.90
57843;DHT22;43673;51.058;3.734;2023-05-20T03:00:11;13.10;99.90
57843;DHT22;43673;51.058;3.734;2023-05-20T03:02:40;13.10;99.90
57843;DHT22;43673;51.058;3.734;2023-05-20T03:05:06;13.00;99.90
57843;DHT22;43673;51.058;3.734;2023-05-20T03:07:33;13.00;99.90
57843;DHT22;43673;51.058;3.734;2023-05-20T03:10:00;13.00;99.90
57843;DHT22;43673;51.058;3.734;2023-05-20T03:12:27;13.00;99.90
57843;DHT22;43673;51.058;3.734;2023-05-20T03:14:53;13.00;99.90
57843;DHT22;43673;51.058;3.734;2023-05-20T03:17:20;13.00;99.90
57843;DHT22;43673;51.058;3.734;2023-05-20T03:19:46;12.90;99.90
57843;DHT22;43673;51.058;3.734;2023-05-20T03:22:21;12.90;99.90
57843;DHT22;43673;51.058;3.734;2023-05-20T03:24:49;12.90;99.90
57843;DHT22;43673;51.058;3.734;2023-05-20T03:27:17;12.80;99.90
57843;DHT22;43673;51.058;3.734;2023-05-20T03:29:43;12.80;99.90
57843;DHT22;43673;51.058;3.734;2023-05-20T03:32:08;12.80;99.90
57843;DHT22;43673;51.058;3.734;2023-05-20T03:34:34;12.80;99.90
57843;DHT22;43673;51.058;3.734;2023-05-20T03:37:00;12.80;99.90
57843;DHT22;43673;51.058;3.734;2023-05-20T03:39:26;12.70;99.90
57843;DHT22;43673;51.058;3.734;2023-05-20T03:41:51;12.70;99.90
57843;DHT22;43673;51.058;3.734;2023-05-20T03:44:17;12.70;99.90
57843;DHT22;43673;51.058;3.734;2023-05-20T03:46:44;12.70;99.90
57843;DHT22;43673;51.058;3.734;2023-05-20T03:49:10;12.70;99.90
57843;DHT22;43673;51.058;3.734;2023-05-20T03:51:35;12.70;99.90
57843;DHT22;43673;51.058;3.734;2023-05-20T03:54:01;12.70;99.90
57843;DHT22;43673;51.058;3.734;2023-05-20T03:56:27;12.70;99.90
57843;DHT22;43673;51.058;3.734;2023-05-20T03:58:52;12.80;99.90
57843;DHT22;43673;51.058;3.734;2023-05-20T04:01:18;12.70;99.90
57843;DHT22;43673;51.058;3.734;2023-05-20T04:03:45;12.80;99.90
57843;DHT22;43673;51.058;3.734;2023-05-20T04:06:12;12.80;99.90
57843;DHT22;43673;51.058;3.734;2023-05-20T04:08:38;12.80;99.90
57843;DHT22;43673;51.058;3.734;2023-05-20T04:11:04;12.70;99.90
57843;DHT22;43673;51.058;3.734;2023-05-20T04:13:30;12.70;99.90
57843;DHT22;43673;51.058;3.734;2023-05-20T04:15:56;12.70;99.90
57843;DHT22;43673;51.058;3.734;2023-05-20T04:18:21;12.60;99.90
57843;DHT22;43673;51.058;3.734;2023-05-20T04:20:47;12.60;99.90
57843;DHT22;43673;51.058;3.734;2023-05-20T04:23:13;12.60;99.90
57843;DHT22;43673;51.058;3.734;2023-05-20T04:25:39;12.70;99.90
57843;DHT22;43673;51.058;3.734;2023-05-20T04:28:06;12.60;99.90
57843;DHT22;43673;51.058;3.734;2023-05-20T04:30:32;12.70;99.90
57843;DHT22;43673;51.058;3.734;2023-05-20T04:32:58;12.70;99.90
57843;DHT22;43673;51.058;3.734;2023-05-20T04:35:27;12.70;99.90
57843;DHT22;43673;51.058;3.734;2023-05-20T04:37:54;12.70;99.90
57843;DHT22;43673;51.058;3.734;2023-05-20T04:40:19;12.80;99.90
57843;DHT22;43673;51.058;3.734;2023-05-20T04:42:45;12.80;99.90
57843;DHT22;43673;51.058;3.734;2023-05-20T04:45:11;12.90;99.90
57843;DHT22;43673;51.058;3.734;2023-05-20T04:47:38;13.10;99.90
57843;DHT22;43673;51.058;3.734;2023-05-20T04:50:05;13.70;99.90
57843;DHT22;43673;51.058;3.734;2023-05-20T04:52:33;14.40;99.90
57843;DHT22;43673;51.058;3.734;2023-05-20T04:54:58;14.80;99.90
57843;DHT22;43673;51.058;3.734;2023-05-20T04:57:26;15.30;99.90
57843;DHT22;43673;51.058;3.734;2023-05-20T04:59:52;15.60;99.90
57843;DHT22;43673;51.058;3.734;2023-05-20T05:02:17;15.90;99.90
57843;DHT22;43673;51.058;3.734;2023-05-20T05:04:43;16.40;99.90
57843;DHT22;43673;51.058;3.734;2023-05-20T05:07:08;16.60;99.90
57843;DHT22;43673;51.058;3.734;2023-05-20T05:09:35;16.70;99.90
57843;DHT22;43673;51.058;3.734;2023-05-20T05:12:01;17.10;99.90
57843;DHT22;43673;51.058;3.734;2023-05-20T05:14:27;17.40;99.90
57843;DHT22;43673;51.058;3.734;2023-05-20T05:16:52;17.70;99.90
57843;DHT22;43673;51.058;3.734;2023-05-20T05:19:18;18.00;99.90
57843;DHT22;43673;51.058;3.734;2023-05-20T05:21:44;18.30;99.90
57843;DHT22;43673;51.058;3.734;2023-05-20T05:24:10;18.80;99.90
57843;DHT22;43673;51.058;3.734;2023-05-20T05:26:35;19.10;99.90
57843;DHT22;43673;51.058;3.734;2023-05-20T05:29:01;19.40;99.90
57843;DHT22;43673;51.058;3.734;2023-05-20T05:31:27;19.50;99.90
57843;DHT22;43673;51.058;3.734;2023-05-20T05:33:52;19.70;99.90
57843;DHT22;43673;51.058;3.734;2023-05-20T05:36:18;20.20;99.90
57843;DHT22;43673;51.058;3.734;2023-05-20T05:38:44;20.60;99.90
57843;DHT22;43673;51.058;3.734;2023-05-20T05:41:09;20.90;99.90
57843;DHT22;43673;51.058;3.734;2023-05-20T05:43:35;20.80;99.90
57843;DHT22;43673;51.058;3.734;2023-05-20T05:46:01;21.20;99.90
57843;DHT22;43673;51.058;3.734;2023-05-20T05:48:26;21.90;99.50
57843;DHT22;43673;51.058;3.734;2023-05-20T05:50:52;21.70;98.70
57843;DHT22;43673;51.058;3.734;2023-05-20T05:53:18;21.60;98.50
57843;DHT22;43673;51.058;3.734;2023-05-20T05:55:47;22.00;97.80
57843;DHT22;43673;51.058;3.734;2023-05-20T05:58:13;21.90;97.20
57843;DHT22;43673;51.058;3.734;2023-05-20T06:00:39;21.70;97.40
57843;DHT22;43673;51.058;3.734;2023-05-20T06:03:04;22.00;97.50
57843;DHT22;43673;51.058;3.734;2023-05-20T06:05:31;22.40;96.10
57843;DHT22;43673;51.058;3.734;2023-05-20T06:07:56;22.50;96.00
57843;DHT22;43673;51.058;3.734;2023-05-20T06:10:22;22.70;95.30
57843;DHT22;43673;51.058;3.734;2023-05-20T06:12:48;22.90;94.80
57843;DHT22;43673;51.058;3.734;2023-05-20T06:15:13;22.80;94.60
57843;DHT22;43673;51.058;3.734;2023-05-20T06:17:39;23.00;94.30
57843;DHT22;43673;51.058;3.734;2023-05-20T06:20:05;23.70;93.40
57843;DHT22;43673;51.058;3.734;2023-05-20T06:22:31;24.00;92.40
57843;DHT22;43673;51.058;3.734;2023-05-20T06:24:57;23.80;92.20
57843;DHT22;43673;51.058;3.734;2023-05-20T06:27:25;23.40;92.10
57843;DHT22;43673;51.058;3.734;2023-05-20T06:29:51;23.10;92.20
57843;DHT22;43673;51.058;3.734;2023-05-20T06:32:17;23.20;92.40
57843;DHT22;43673;51.058;3.734;2023-05-20T06:34:43;23.20;92.40
57843;DHT22;43673;51.058;3.734;2023-05-20T06:37:09;23.30;92.00
57843;DHT22;43673;51.058;3.734;2023-05-20T06:39:35;23.40;91.90
57843;DHT22;43673;51.058;3.734;2023-05-20T06:42:01;23.60;91.50
57843;DHT22;43673;51.058;3.734;2023-05-20T06:44:27;23.50;90.90
57843;DHT22;43673;51.058;3.734;2023-05-20T06:46:53;23.10;91.50
57843;DHT22;43673;51.058;3.734;2023-05-20T06:49:18;22.80;91.60
57843;DHT22;43673;51.058;3.734;2023-05-20T06:51:44;22.70;92.00
57843;DHT22;43673;51.058;3.734;2023-05-20T06:54:10;22.80;92.10
57843;DHT22;43673;51.058;3.734;2023-05-20T06:56:35;22.80;91.90
57843;DHT22;43673;51.058;3.734;2023-05-20T06:59:01;23.10;91.60
57843;DHT22;43673;51.058;3.734;2023-05-20T07:01:27;22.90;91.60
57843;DHT22;43673;51.058;3.734;2023-05-20T07:03:52;22.80;91.90
57843;DHT22;43673;51.058;3.734;2023-05-20T07:06:18;22.90;91.70
57843;DHT22;43673;51.058;3.734;2023-05-20T07:08:44;23.00;91.80
57843;DHT22;43673;51.058;3.734;2023-05-20T07:11:09;23.30;91.30
57843;DHT22;43673;51.058;3.734;2023-05-20T07:13:35;23.10;91.40
57843;DHT22;43673;51.058;3.734;2023-05-20T07:16:01;23.20;90.90
57843;DHT22;43673;51.058;3.734;2023-05-20T07:18:27;23.40;91.00
57843;DHT22;43673;51.058;3.734;2023-05-20T07:20:53;23.70;90.80
57843;DHT22;43673;51.058;3.734;2023-05-20T07:23:21;24.40;90.40
57843;DHT22;43673;51.058;3.734;2023-05-20T07:25:47;25.10;89.00
57843;DHT22;43673;51.058;3.734;2023-05-20T07:28:15;25.50;87.70
57843;DHT22;43673;51.058;3.734;2023-05-20T07:30:42;25.50;85.60
57843;DHT22;43673;51.058;3.734;2023-05-20T07:33:10;25.00;86.10
57843;DHT22;43673;51.058;3.734;2023-05-20T07:35:37;25.20;86.60
57843;DHT22;43673;51.058;3.734;2023-05-20T07:38:03;25.50;85.40
57843;DHT22;43673;51.058;3.734;2023-05-20T07:40:28;25.30;84.40
57843;DHT22;43673;51.058;3.734;2023-05-20T07:42:54;25.40;84.40
57843;DHT22;43673;51.058;3.734;2023-05-20T07:45:19;25.60;84.30
57843;DHT22;43673;51.058;3.734;2023-05-20T07:47:45;25.20;83.40
57843;DHT22;43673;51.058;3.734;2023-05-20T07:50:11;25.10;84.40
57843;DHT22;43673;51.058;3.734;2023-05-20T07:52:37;25.10;84.40
57843;DHT22;43673;51.058;3.734;2023-05-20T07:55:03;25.80;84.30
57843;DHT22;43673;51.058;3.734;2023-05-20T07:57:29;26.00;82.60
57843;DHT22;43673;51.058;3.734;2023-05-20T07:59:55;25.90;82.80
57843;DHT22;43673;51.058;3.734;2023-05-20T08:02:21;26.20;81.90
57843;DHT22;43673;51.058;3.734;2023-05-20T08:04:46;26.10;81.40
57843;DHT22;43673;51.058;3.734;2023-05-20T08:07:12;25.90;80.30
57843;DHT22;43673;51.058;3.734;2023-05-20T08:09:38;26.10;81.30
57843;DHT22;43673;51.058;3.734;2023-05-20T08:12:03;26.90;79.80
57843;DHT22;43673;51.058;3.734;2023-05-20T08:14:30;27.50;77.90
57843;DHT22;43673;51.058;3.734;2023-05-20T08:16:55;27.10;77.60
57843;DHT22;43673;51.058;3.734;2023-05-20T08:19:21;27.20;77.50
57843;DHT22;43673;51.058;3.734;2023-05-20T08:21:47;26.90;76.80
57843;DHT22;43673;51.058;3.734;2023-05-20T08:24:13;27.10;77.90
57843;DHT22;43673;51.058;3.734;2023-05-20T08:26:38;27.50;76.50
57843;DHT22;43673;51.058;3.734;2023-05-20T08:29:04;27.70;75.90
57843;DHT22;43673;51.058;3.734;2023-05-20T08:31:31;27.50;73.70
57843;DHT22;43673;51.058;3.734;2023-05-20T08:33:58;26.80;75.10
57843;DHT22;43673;51.058;3.734;2023-05-20T08:36:23;26.60;76.30
57843;DHT22;43673;51.058;3.734;2023-05-20T08:41:25;26.90;74.20
57843;DHT22;43673;51.058;3.734;2023-05-20T08:43:52;26.50;74.00
57843;DHT22;43673;51.058;3.734;2023-05-20T08:46:19;26.40;75.30
57843;DHT22;43673;51.058;3.734;2023-05-20T08:48:46;26.50;74.00
57843;DHT22;43673;51.058;3.734;2023-05-20T08:53:48;27.10;72.60
57843;DHT22;43673;51.058;3.734;2023-05-20T08:56:14;27.50;72.80
57843;DHT22;43673;51.058;3.734;2023-05-20T08:58:40;28.20;71.60
57843;DHT22;43673;51.058;3.734;2023-05-20T09:01:07;28.30;70.50
57843;DHT22;43673;51.058;3.734;2023-05-20T09:03:33;27.80;70.70
57843;DHT22;43673;51.058;3.734;2023-05-20T09:06:06;27.50;70.70
57843;DHT22;43673;51.058;3.734;2023-05-20T09:08:32;27.00;71.10
57843;DHT22;43673;51.058;3.734;2023-05-20T09:10:59;27.10;71.20
57843;DHT22;43673;51.058;3.734;2023-05-20T09:13:26;27.10;70.30
57843;DHT22;43673;51.058;3.734;2023-05-20T09:15:53;27.10;70.20
57843;DHT22;43673;51.058;3.734;2023-05-20T09:18:18;26.70;72.00
57843;DHT22;43673;51.058;3.734;2023-05-20T09:20:46;27.10;72.40
57843;DHT22;43673;51.058;3.734;2023-05-20T09:23:12;27.30;70.30
57843;DHT22;43673;51.058;3.734;2023-05-20T09:25:38;27.10;70.40
57843;DHT22;43673;51.058;3.734;2023-05-20T09:28:05;27.20;70.40
57843;DHT22;43673;51.058;3.734;2023-05-20T09:30:32;27.30;71.00
57843;DHT22;43673;51.058;3.734;2023-05-20T09:32:59;28.00;70.00
57843;DHT22;43673;51.058;3.734;2023-05-20T09:35:26;27.50;69.80
57843;DHT22;43673;51.058;3.734;2023-05-20T09:37:57;27.30;69.90
57843;DHT22;43673;51.058;3.734;2023-05-20T09:40:25;27.60;70.10
57843;DHT22;43673;51.058;3.734;2023-05-20T09:43:06;27.60;69.70
57843;DHT22;43673;51.058;3.734;2023-05-20T09:45:32;26.20;70.90
57843;DHT22;43673;51.058;3.734;2023-05-20T09:48:00;25.50;73.20
57843;DHT22;43673;51.058;3.734;2023-05-20T09:50:26;25.50;73.90
57843;DHT22;43673;51.058;3.734;2023-05-20T09:52:53;25.90;73.50
57843;DHT22;43673;51.058;3.734;2023-05-20T09:55:48;26.20;73.40
57843;DHT22;43673;51.058;3.734;2023-05-20T09:58:31;25.10;73.30
57843;DHT22;43673;51.058;3.734;2023-05-20T10:00:58;24.30;72.20
57843;DHT22;43673;51.058;3.734;2023-05-20T10:03:24;24.40;70.60
57843;DHT22;43673;51.058;3.734;2023-05-20T10:21:44;24.30;70.40
57843;DHT22;43673;51.058;3.734;2023-05-20T10:26:54;23.20;73.30
57843;DHT22;43673;51.058;3.734;2023-05-20T10:29:20;23.20;74.40
57843;DHT22;43673;51.058;3.734;2023-05-20T10:31:52;23.60;74.20
57843;DHT22;43673;51.058;3.734;2023-05-20T10:34:22;23.10;73.50
57843;DHT22;43673;51.058;3.734;2023-05-20T10:39:28;23.60;73.40
57843;DHT22;43673;51.058;3.734;2023-05-20T10:42:13;23.70;73.00
57843;DHT22;43673;51.058;3.734;2023-05-20T10:44:48;23.50;74.10
57843;DHT22;43673;51.058;3.734;2023-05-20T10:47:14;23.10;74.60
57843;DHT22;43673;51.058;3.734;2023-05-20T10:49:43;23.30;73.00
57843;DHT22;43673;51.058;3.734;2023-05-20T10:52:11;23.40;71.70
57843;DHT22;43673;51.058;3.734;2023-05-20T10:54:45;23.50;71.70
57843;DHT22;43673;51.058;3.734;2023-05-20T10:57:12;23.80;70.30
57843;DHT22;43673;51.058;3.734;2023-05-20T10:59:38;23.80;70.30
57843;DHT22;43673;51.058;3.734;2023-05-20T11:02:05;23.70;69.60
57843;DHT22;43673;51.058;3.734;2023-05-20T11:04:31;23.50;70.80
57843;DHT22;43673;51.058;3.734;2023-05-20T11:06:57;23.60;71.50
57843;DHT22;43673;51.058;3.734;2023-05-20T11:09:23;23.70;70.80
57843;DHT22;43673;51.058;3.734;2023-05-20T11:11:50;23.60;70.90
57843;DHT22;43673;51.058;3.734;2023-05-20T11:14:16;23.90;70.60
57843;DHT22;43673;51.058;3.734;2023-05-20T11:16:44;24.20;69.70
57843;DHT22;43673;51.058;3.734;2023-05-20T11:19:16;24.00;69.40
57843;DHT22;43673;51.058;3.734;2023-05-20T11:21:44;24.00;69.90
57843;DHT22;43673;51.058;3.734;2023-05-20T11:24:10;24.20;70.40
57843;DHT22;43673;51.058;3.734;2023-05-20T11:26:36;23.70;69.80
57843;DHT22;43673;51.058;3.734;2023-05-20T11:29:02;23.30;70.80
57843;DHT22;43673;51.058;3.734;2023-05-20T11:31:29;22.70;71.40
57843;DHT22;43673;51.058;3.734;2023-05-20T11:33:59;21.90;72.80
57843;DHT22;43673;51.058;3.734;2023-05-20T11:36:26;21.50;74.20
57843;DHT22;43673;51.058;3.734;2023-05-20T11:38:53;21.40;75.10
57843;DHT22;43673;51.058;3.734;2023-05-20T11:41:26;21.30;75.00
57843;DHT22;43673;51.058;3.734;2023-05-20T11:43:59;21.30;75.10
57843;DHT22;43673;51.058;3.734;2023-05-20T11:46:25;21.50;75.00
57843;DHT22;43673;51.058;3.734;2023-05-20T11:48:58;21.40;73.80
57843;DHT22;43673;51.058;3.734;2023-05-20T11:51:29;21.40;74.90
57843;DHT22;43673;51.058;3.734;2023-05-20T11:54:01;21.30;74.70
57843;DHT22;43673;51.058;3.734;2023-05-20T11:56:28;21.10;75.30
57843;DHT22;43673;51.058;3.734;2023-05-20T11:58:56;21.00;75.60
57843;DHT22;43673;51.058;3.734;2023-05-20T12:01:23;21.10;75.70
57843;DHT22;43673;51.058;3.734;2023-05-20T12:03:48;21.20;75.90
57843;DHT22;43673;51.058;3.734;2023-05-20T12:06:16;21.30;75.00
57843;DHT22;43673;51.058;3.734;2023-05-20T12:08:41;21.20;75.60
57843;DHT22;43673;51.058;3.734;2023-05-20T12:11:07;21.30;75.30
57843;DHT22;43673;51.058;3.734;2023-05-20T12:13:33;21.40;74.90
57843;DHT22;43673;51.058;3.734;2023-05-20T12:15:59;21.60;75.20
57843;DHT22;43673;51.058;3.734;2023-05-20T12:18:24;21.70;74.20
57843;DHT22;43673;51.058;3.734;2023-05-20T12:20:53;22.00;74.40
57843;DHT22;43673;51.058;3.734;2023-05-20T12:23:18;22.10;74.30
57843;DHT22;43673;51.058;3.734;2023-05-20T12:25:48;22.10;74.10
57843;DHT22;43673;51.058;3.734;2023-05-20T12:28:15;21.90;73.10
57843;DHT22;43673;51.058;3.734;2023-05-20T12:30:47;21.90;73.60
57843;DHT22;43673;51.058;3.734;2023-05-20T12:33:13;21.80;74.00
57843;DHT22;43673;51.058;3.734;2023-05-20T12:35:41;21.80;74.40
57843;DHT22;43673;51.058;3.734;2023-05-20T12:38:11;21.80;73.10
57843;DHT22;43673;51.058;3.734;2023-05-20T12:40:37;21.80;74.10
57843;DHT22;43673;51.058;3.734;2023-05-20T12:45:44;22.00;74.40
57843;DHT22;43673;51.058;3.734;2023-05-20T12:48:10;22.00;74.60
57843;DHT22;43673;51.058;3.734;2023-05-20T12:50:42;22.00;74.80
57843;DHT22;43673;51.058;3.734;2023-05-20T12:53:14;22.00;74.20
57843;DHT22;43673;51.058;3.734;2023-05-20T12:55:43;21.90;74.50
57843;DHT22;43673;51.058;3.734;2023-05-20T12:58:25;22.00;75.00
57843;DHT22;43673;51.058;3.734;2023-05-20T13:00:54;22.10;74.50
57843;DHT22;43673;51.058;3.734;2023-05-20T13:03:30;22.10;75.20
57843;DHT22;43673;51.058;3.734;2023-05-20T13:05:57;22.30;75.20
57843;DHT22;43673;51.058;3.734;2023-05-20T13:08:23;22.20;75.10
57843;DHT22;43673;51.058;3.734;2023-05-20T13:10:52;22.20;75.40
57843;DHT22;43673;51.058;3.734;2023-05-20T13:13:24;22.20;75.80
57843;DHT22;43673;51.058;3.734;2023-05-20T13:15:53;22.20;75.70
57843;DHT22;43673;51.058;3.734;2023-05-20T13:18:21;22.40;75.90
57843;DHT22;43673;51.058;3.734;2023-05-20T13:20:50;22.50;75.70
57843;DHT22;43673;51.058;3.734;2023-05-20T13:23:17;22.30;75.30
57843;DHT22;43673;51.058;3.734;2023-05-20T13:25:43;22.20;75.60
57843;DHT22;43673;51.058;3.734;2023-05-20T13:28:12;22.00;75.60
57843;DHT22;43673;51.058;3.734;2023-05-20T13:30:41;21.90;75.70
57843;DHT22;43673;51.058;3.734;2023-05-20T13:33:09;22.20;76.30
57843;DHT22;43673;51.058;3.734;2023-05-20T13:35:36;22.40;76.40
57843;DHT22;43673;51.058;3.734;2023-05-20T13:38:01;22.30;75.80
57843;DHT22;43673;51.058;3.734;2023-05-20T13:40:27;22.30;75.70
57843;DHT22;43673;51.058;3.734;2023-05-20T13:42:59;22.30;75.70
57843;DHT22;43673;51.058;3.734;2023-05-20T13:45:25;22.20;75.60
57843;DHT22;43673;51.058;3.734;2023-05-20T13:47:53;22.20;76.10
57843;DHT22;43673;51.058;3.734;2023-05-20T13:50:19;22.20;75.80
57843;DHT22;43673;51.058;3.734;2023-05-20T13:52:46;22.40;75.60
57843;DHT22;43673;51.058;3.734;2023-05-20T13:55:19;22.60;75.30
57843;DHT22;43673;51.058;3.734;2023-05-20T13:57:46;22.60;75.40
57843;DHT22;43673;51.058;3.734;2023-05-20T14:00:15;22.60;75.20
57843;DHT22;43673;51.058;3.734;2023-05-20T14:02:47;22.60;75.60
57843;DHT22;43673;51.058;3.734;2023-05-20T14:05:13;22.70;74.80
57843;DHT22;43673;51.058;3.734;2023-05-20T14:07:39;22.70;74.80
57843;DHT22;43673;51.058;3.734;2023-05-20T14:10:08;22.80;75.20
57843;DHT22;43673;51.058;3.734;2023-05-20T14:12:35;22.80;75.60
57843;DHT22;43673;51.058;3.734;2023-05-20T14:15:07;23.00;75.60
57843;DHT22;43673;51.058;3.734;2023-05-20T14:17:36;22.90;75.20
57843;DHT22;43673;51.058;3.734;2023-05-20T14:20:02;22.80;75.70
57843;DHT22;43673;51.058;3.734;2023-05-20T14:22:27;22.70;75.80
57843;DHT22;43673;51.058;3.734;2023-05-20T14:24:53;22.60;76.20
57843;DHT22;43673;51.058;3.734;2023-05-20T14:27:22;22.50;76.50
57843;DHT22;43673;51.058;3.734;2023-05-20T14:29:48;22.30;76.50
57843;DHT22;43673;51.058;3.734;2023-05-20T14:32:14;22.10;77.20
57843;DHT22;43673;51.058;3.734;2023-05-20T14:34:40;22.30;77.40
57843;DHT22;43673;51.058;3.734;2023-05-20T14:37:05;22.30;78.20
57843;DHT22;43673;51.058;3.734;2023-05-20T14:39:35;22.50;78.10
57843;DHT22;43673;51.058;3.734;2023-05-20T14:42:01;22.60;77.30
57843;DHT22;43673;51.058;3.734;2023-05-20T14:44:28;22.40;76.90
57843;DHT22;43673;51.058;3.734;2023-05-20T14:46:53;22.30;77.80
57843;DHT22;43673;51.058;3.734;2023-05-20T14:49:19;22.20;78.20
57843;DHT22;43673;51.058;3.734;2023-05-20T14:51:45;22.20;78.70
57843;DHT22;43673;51.058;3.734;2023-05-20T14:54:12;22.30;78.70
57843;DHT22;43673;51.058;3.734;2023-05-20T14:56:50;22.50;78.90
57843;DHT22;43673;51.058;3.734;2023-05-20T14:59:17;22.50;77.70
57843;DHT22;43673;51.058;3.734;2023-05-20T15:01:49;22.50;77.90
57843;DHT22;43673;51.058;3.734;2023-05-20T15:04:18;22.60;78.10
57843;DHT22;43673;51.058;3.734;2023-05-20T15:07:17;22.50;77.30
57843;DHT22;43673;51.058;3.734;2023-05-20T15:09:45;22.70;77.70
57843;DHT22;43673;51.058;3.734;2023-05-20T15:12:11;22.50;77.90
57843;DHT22;43673;51.058;3.734;2023-05-20T15:14:42;22.40;78.50
57843;DHT22;43673;51.058;3.734;2023-05-20T15:17:08;22.40;78.90
57843;DHT22;43673;51.058;3.734;2023-05-20T15:27:20;22.30;80.00
57843;DHT22;43673;51.058;3.734;2023-05-20T15:32:24;22.30;79.00
57843;DHT22;43673;51.058;3.734;2023-05-20T15:34:56;22.20;79.70
57843;DHT22;43673;51.058;3.734;2023-05-20T15:37:25;22.00;79.70
57843;DHT22;43673;51.058;3.734;2023-05-20T15:39:51;21.80;80.20
57843;DHT22;43673;51.058;3.734;2023-05-20T15:42:46;21.80;81.00
57843;DHT22;43673;51.058;3.734;2023-05-20T15:45:15;22.00;81.50
57843;DHT22;43673;51.058;3.734;2023-05-20T15:47:41;22.20;81.00
57843;DHT22;43673;51.058;3.734;2023-05-20T15:58:11;22.80;79.50
57843;DHT22;43673;51.058;3.734;2023-05-20T16:00:46;23.00;78.90
57843;DHT22;43673;51.058;3.734;2023-05-20T16:03:20;22.80;79.20
57843;DHT22;43673;51.058;3.734;2023-05-20T16:05:46;22.60;79.70
57843;DHT22;43673;51.058;3.734;2023-05-20T16:08:12;22.40;80.40
57843;DHT22;43673;51.058;3.734;2023-05-20T16:10:38;22.20;81.40
57843;DHT22;43673;51.058;3.734;2023-05-20T16:13:06;22.20;81.10
57843;DHT22;43673;51.058;3.734;2023-05-20T16:15:32;22.20;81.40
57843;DHT22;43673;51.058;3.734;2023-05-20T16:18:02;22.00;81.60
57843;DHT22;43673;51.058;3.734;2023-05-20T16:20:27;21.90;82.00